Time;durP1;ratioP1;P1;durP2;ratioP2;P2;SDS_P1;SDS_P2;PMS_P1;PMS_P2;Temp;Humidity;BMP_temperature;BMP_pressure;BME280_temperature;BME280_humidity;BME280_pressure;Samples;Min_cycle;Max_cycle;Signal;HPM_P1;HPM_P2
2021/08/11 00:02:11;;;;;;;5.60;2.20;;;13.20;83.90;;;;;;5058184;28;20024;-68
2021/08/11 00:04:38;;;;;;;6.75;2.47;;;13.20;84.10;;;;;;5059536;28;20043;-67
2021/08/11 00:07:04;;;;;;;14.10;2.88;;;13.10;84.40;;;;;;5053895;28;20022;-71
2021/08/11 00:09:31;;;;;;;9.70;3.58;;;13.10;84.50;;;;;;5059227;28;20017;-65
2021/08/11 00:11:58;;;;;;;8.98;3.72;;;13.10;84.70;;;;;;5061610;28;20012;-71
2021/08/11 00:14:25;;;;;;;5.78;3.88;;;13.00;84.70;;;;;;5060532;28;20032;-67
2021/08/11 00:16:52;;;;;;;7.65;3.33;;;13.00;84.90;;;;;;5058421;28;20008;-68
2021/08/11 00:19:18;;;;;;;8.02;4.03;;;13.00;84.90;;;;;;5055595;28;20025;-70
2021/08/11 00:21:45;;;;;;;8.15;3.67;;;13.00;85.00;;;;;;5055815;28;20104;-71
2021/08/11 00:24:11;;;;;;;10.55;4.57;;;13.00;85.20;;;;;;5060923;28;20479;-72
2021/08/11 00:26:38;;;;;;;9.80;4.13;;;13.00;85.20;;;;;;5063940;28;20031;-71
2021/08/11 00:29:04;;;;;;;9.98;5.60;;;13.00;85.20;;;;;;5058650;28;20039;-71
2021/08/11 00:31:31;;;;;;;12.25;5.72;;;12.90;85.30;;;;;;5062614;28;20463;-69
2021/08/11 00:33:57;;;;;;;8.40;5.97;;;12.90;85.50;;;;;;5057170;28;20104;-68
2021/08/11 00:36:24;;;;;;;11.90;5.25;;;12.90;85.70;;;;;;5061971;28;20385;-68
2021/08/11 00:38:50;;;;;;;12.52;4.90;;;12.90;85.70;;;;;;5060642;28;20040;-67
2021/08/11 00:41:17;;;;;;;13.95;5.68;;;12.90;85.90;;;;;;5054329;28;20017;-66
2021/08/11 00:43:44;;;;;;;12.13;4.97;;;12.90;86.00;;;;;;5054631;28;20422;-69
2021/08/11 00:46:11;;;;;;;10.90;4.95;;;12.90;86.00;;;;;;5052065;28;20017;-70
2021/08/11 00:48:38;;;;;;;10.90;5.03;;;12.90;85.90;;;;;;5048731;28;20020;-70
2021/08/11 00:51:06;;;;;;;13.15;5.35;;;12.90;85.80;;;;;;5052455;28;20017;-71
2021/08/11 00:53:33;;;;;;;14.45;6.38;;;12.90;85.50;;;;;;5052847;28;20035;-71
2021/08/11 00:56:01;;;;;;;11.60;6.30;;;12.90;85.50;;;;;;5051585;28;20100;-69
2021/08/11 00:58:29;;;;;;;18.60;6.10;;;12.90;85.70;;;;;;5058082;28;20042;-68
2021/08/11 01:00:59;;;;;;;9.63;5.63;;;12.90;85.60;;;;;;5049056;28;20567;-69
2021/08/11 01:03:27;;;;;;;15.15;6.13;;;12.90;85.70;;;;;;5052636;28;20031;-72
2021/08/11 01:05:56;;;;;;;19.33;6.68;;;12.90;85.50;;;;;;5050539;28;20571;-71
2021/08/11 01:08:24;;;;;;;9.90;5.22;;;12.80;85.70;;;;;;5057101;28;20032;-73
2021/08/11 01:10:52;;;;;;;11.07;5.15;;;12.80;85.60;;;;;;5055292;28;20043;-69
2021/08/11 01:13:20;;;;;;;12.73;6.63;;;12.80;85.50;;;;;;5059329;28;20060;-74
2021/08/11 01:15:46;;;;;;;13.07;5.35;;;12.80;85.60;;;;;;5055952;28;20392;-69
2021/08/11 01:18:18;;;;;;;9.90;4.85;;;12.80;85.40;;;;;;5059289;28;20047;-72
2021/08/11 01:21:02;;;;;;;17.90;5.28;;;12.70;85.30;;;;;;5058589;28;20457;-67
2021/08/11 01:23:37;;;;;;;9.50;4.28;;;12.70;85.20;;;;;;5058499;28;20025;-68
2021/08/11 01:26:14;;;;;;;6.90;4.22;;;12.70;85.30;;;;;;5052756;28;20026;-66
2021/08/11 01:28:53;;;;;;;8.35;4.68;;;12.70;85.20;;;;;;5055717;28;20464;-65
2021/08/11 01:31:28;;;;;;;12.60;4.93;;;12.70;85.20;;;;;;5058821;28;20065;-65
2021/08/11 01:34:11;;;;;;;6.07;4.20;;;12.60;85.00;;;;;;5060642;28;20021;-65
2021/08/11 01:36:55;;;;;;;15.52;4.93;;;12.70;85.00;;;;;;5053485;28;20024;-64
2021/08/11 01:39:32;;;;;;;11.80;3.97;;;12.60;84.80;;;;;;5051155;28;20807;-65
2021/08/11 01:42:06;;;;;;;8.48;3.33;;;12.60;84.70;;;;;;5052964;28;20055;-66
2021/08/11 01:44:59;;;;;;;7.40;4.30;;;12.50;84.80;;;;;;5058642;28;20035;-67
2021/08/11 01:47:34;;;;;;;10.00;4.60;;;12.50;84.70;;;;;;5057130;28;20024;-63
2021/08/11 01:50:02;;;;;;;8.20;4.03;;;12.50;84.60;;;;;;5057502;28;20091;-65
2021/08/11 01:52:29;;;;;;;8.45;4.07;;;12.40;84.70;;;;;;5056031;28;20025;-66
2021/08/11 01:54:57;;;;;;;9.85;4.18;;;12.40;84.90;;;;;;5056782;28;20090;-66
2021/08/11 01:57:24;;;;;;;10.85;4.63;;;12.40;85.00;;;;;;5053386;28;20548;-67
2021/08/11 01:59:52;;;;;;;10.38;3.85;;;12.40;85.30;;;;;;5055684;28;20499;-65
2021/08/11 02:02:19;;;;;;;9.70;3.63;;;12.40;85.40;;;;;;5046785;28;20021;-63
2021/08/11 02:04:47;;;;;;;8.93;4.07;;;12.40;85.10;;;;;;5053413;28;20094;-65
2021/08/11 02:07:16;;;;;;;7.90;4.38;;;12.40;85.50;;;;;;5059742;28;20819;-65
2021/08/11 02:09:43;;;;;;;7.57;4.32;;;12.30;85.30;;;;;;5054555;28;20025;-68
2021/08/11 02:12:10;;;;;;;8.57;3.42;;;12.30;85.50;;;;;;5058128;28;20032;-67
2021/08/11 02:15:16;;;;;;;6.22;3.30;;;12.30;85.40;;;;;;5052817;28;20028;-67
2021/08/11 02:18:22;;;;;;;9.32;3.10;;;12.20;85.40;;;;;;5054741;28;20009;-67
2021/08/11 02:21:28;;;;;;;11.60;4.40;;;12.20;85.40;;;;;;5060501;28;20483;-66
2021/08/11 02:24:34;;;;;;;3.55;2.10;;;12.10;85.60;;;;;;5053266;28;21331;-66
2021/08/11 02:27:40;;;;;;;8.63;2.40;;;12.20;85.80;;;;;;5060905;28;20029;-64
2021/08/11 02:30:30;;;;;;;4.10;2.22;;;12.10;86.00;;;;;;5057735;28;20051;-66
2021/08/11 02:33:42;;;;;;;7.25;2.58;;;12.10;85.90;;;;;;5060573;28;20012;-67
2021/08/11 02:37:03;;;;;;;6.10;3.08;;;12.10;85.60;;;;;;5053979;28;20720;-65
2021/08/11 02:40:09;;;;;;;5.63;2.58;;;12.00;85.60;;;;;;5055994;28;20029;-65
2021/08/11 02:43:05;;;;;;;9.57;2.83;;;11.90;85.90;;;;;;5058059;28;20037;-65
2021/08/11 02:45:34;;;;;;;11.70;3.75;;;11.90;86.10;;;;;;5057138;28;20483;-64
2021/08/11 02:48:01;;;;;;;7.50;2.53;;;11.90;85.80;;;;;;5054068;28;20045;-65
2021/08/11 02:50:28;;;;;;;5.85;1.88;;;11.90;86.00;;;;;;5057006;28;20462;-65
2021/08/11 02:52:55;;;;;;;5.28;2.20;;;11.90;85.90;;;;;;5053362;28;20023;-66
2021/08/11 02:55:22;;;;;;;7.53;2.63;;;11.90;86.00;;;;;;5058109;28;20094;-64
2021/08/11 02:57:50;;;;;;;6.45;2.25;;;11.80;86.10;;;;;;5060745;28;20012;-65
2021/08/11 03:00:18;;;;;;;8.57;2.10;;;11.80;86.30;;;;;;5058813;28;20023;-66
2021/08/11 03:02:45;;;;;;;7.97;2.58;;;11.80;86.40;;;;;;5053986;28;20025;-64
2021/08/11 03:05:12;;;;;;;5.57;2.13;;;11.90;86.80;;;;;;5056440;28;20048;-69
2021/08/11 03:07:39;;;;;;;5.25;2.85;;;11.80;86.80;;;;;;5055593;28;21283;-66
2021/08/11 03:10:06;;;;;;;4.30;2.28;;;11.90;87.00;;;;;;5055125;28;20084;-65
2021/08/11 03:12:33;;;;;;;6.80;2.17;;;11.90;87.30;;;;;;5059090;28;20013;-66
2021/08/11 03:15:00;;;;;;;3.75;1.80;;;11.90;87.40;;;;;;5059288;28;20013;-68
2021/08/11 03:17:27;;;;;;;7.32;2.08;;;12.00;87.60;;;;;;5066234;28;20020;-64
2021/08/11 03:19:54;;;;;;;3.45;1.50;;;12.00;87.50;;;;;;5060654;28;20028;-67
2021/08/11 03:22:21;;;;;;;4.63;1.80;;;12.00;87.80;;;;;;5061009;28;20025;-65
2021/08/11 03:24:48;;;;;;;7.03;2.33;;;12.00;88.00;;;;;;5056428;28;20047;-64
2021/08/11 03:27:14;;;;;;;2.97;1.85;;;12.00;88.00;;;;;;5064080;28;20475;-66
2021/08/11 03:29:41;;;;;;;6.10;1.83;;;12.00;88.10;;;;;;5059819;28;20017;-64
2021/08/11 03:32:08;;;;;;;5.63;1.50;;;12.00;88.00;;;;;;5059938;28;20482;-68
2021/08/11 03:34:34;;;;;;;15.50;11.43;;;12.00;87.90;;;;;;5055759;28;20368;-68
2021/08/11 03:37:01;;;;;;;20.33;12.30;;;12.00;87.70;;;;;;5057296;28;20468;-66
2021/08/11 03:39:27;;;;;;;11.02;7.78;;;12.00;87.30;;;;;;5055516;28;20033;-67
2021/08/11 03:41:54;;;;;;;3.63;2.13;;;12.00;87.30;;;;;;5058727;28;20094;-67
2021/08/11 03:44:20;;;;;;;8.82;2.22;;;12.00;87.40;;;;;;5058513;28;20029;-66
2021/08/11 03:46:47;;;;;;;5.85;3.15;;;12.00;87.70;;;;;;5056112;28;20084;-68
2021/08/11 03:49:13;;;;;;;7.25;2.20;;;12.00;88.60;;;;;;5053590;28;20017;-63
2021/08/11 03:51:40;;;;;;;5.68;2.22;;;12.00;88.20;;;;;;5053743;28;20541;-66
2021/08/11 03:54:06;;;;;;;6.20;1.98;;;12.00;88.70;;;;;;5058528;28;20111;-67
2021/08/11 03:56:33;;;;;;;3.97;1.85;;;12.10;88.60;;;;;;5053487;28;20024;-67
2021/08/11 03:59:00;;;;;;;2.83;1.67;;;12.10;88.70;;;;;;5053979;28;20029;-70
2021/08/11 04:01:26;;;;;;;6.03;1.90;;;12.10;88.60;;;;;;5050229;28;20365;-69
2021/08/11 04:03:53;;;;;;;4.65;1.95;;;12.10;88.50;;;;;;5053223;28;20025;-69
2021/08/11 04:06:19;;;;;;;3.17;2.00;;;12.10;88.50;;;;;;5047618;28;20380;-70
2021/08/11 04:08:46;;;;;;;5.15;2.25;;;12.10;88.60;;;;;;5046309;28;20154;-67
2021/08/11 04:11:12;;;;;;;3.97;2.00;;;12.20;88.70;;;;;;5047453;28;20533;-69
2021/08/11 04:13:39;;;;;;;9.57;3.88;;;12.10;88.90;;;;;;5049395;28;20028;-68
2021/08/11 04:16:05;;;;;;;28.02;18.23;;;12.20;88.90;;;;;;5047042;28;20014;-67
2021/08/11 04:19:11;;;;;;;68.20;41.03;;;12.20;89.30;;;;;;5049060;28;20037;-70
2021/08/11 04:21:55;;;;;;;36.25;20.33;;;12.30;89.50;;;;;;5047968;28;20049;-66
2021/08/11 04:24:22;;;;;;;13.68;7.78;;;12.30;89.70;;;;;;5047210;28;20045;-72
2021/08/11 04:26:48;;;;;;;10.13;4.80;;;12.40;89.60;;;;;;5051263;28;20055;-67
2021/08/11 04:29:15;;;;;;;11.50;4.88;;;12.40;89.40;;;;;;5054637;28;20471;-68
2021/08/11 04:31:41;;;;;;;29.83;20.58;;;12.40;89.90;;;;;;5051068;28;20496;-68
2021/08/11 04:34:08;;;;;;;25.02;18.38;;;12.40;89.60;;;;;;5055182;28;20016;-68
2021/08/11 04:36:35;;;;;;;13.65;6.80;;;12.40;89.30;;;;;;5049697;28;20033;-68
2021/08/11 04:39:01;;;;;;;9.10;4.80;;;12.40;89.00;;;;;;5053315;28;20040;-67
2021/08/11 04:41:28;;;;;;;9.77;5.57;;;12.40;88.80;;;;;;5050866;28;20048;-66
2021/08/11 04:43:54;;;;;;;9.15;5.57;;;12.40;88.70;;;;;;5049507;28;20369;-65
2021/08/11 04:46:21;;;;;;;9.15;4.70;;;12.50;88.70;;;;;;5049157;28;20025;-68
2021/08/11 04:48:48;;;;;;;9.98;5.10;;;12.40;88.70;;;;;;5053719;28;20013;-71
2021/08/11 04:51:14;;;;;;;8.00;5.10;;;12.40;88.90;;;;;;5052382;28;20032;-69
2021/08/11 04:53:41;;;;;;;11.57;5.93;;;12.40;89.10;;;;;;5043340;28;20405;-70
2021/08/11 04:56:07;;;;;;;10.57;6.40;;;12.40;89.50;;;;;;5068783;28;20480;-69
2021/08/11 04:59:14;;;;;;;7.10;4.57;;;12.30;89.00;;;;;;5040682;28;20396;-67
2021/08/11 05:02:20;;;;;;;16.10;5.65;;;12.30;88.90;;;;;;5043083;28;20024;-69
2021/08/11 05:05:26;;;;;;;7.47;4.80;;;12.30;89.00;;;;;;5038917;28;20103;-66
2021/08/11 05:08:32;;;;;;;14.38;7.43;;;12.20;89.10;;;;;;5043141;28;20399;-66
2021/08/11 05:11:40;;;;;;;8.43;4.85;;;12.20;88.40;;;;;;5041458;28;20028;-69
2021/08/11 05:14:46;;;;;;;7.38;5.68;;;12.10;88.40;;;;;;5043989;28;20021;-69
2021/08/11 05:17:12;;;;;;;9.35;5.90;;;12.10;88.50;;;;;;5040757;28;20031;-69
2021/08/11 05:19:39;;;;;;;7.95;4.60;;;12.00;88.40;;;;;;5042491;28;20036;-70
2021/08/11 05:22:05;;;;;;;13.10;6.00;;;12.00;88.50;;;;;;5044273;28;20509;-67
2021/08/11 05:24:32;;;;;;;11.95;6.80;;;11.90;88.50;;;;;;5049000;28;20033;-69
2021/08/11 05:26:58;;;;;;;10.88;7.47;;;11.90;85.80;;;;;;5045221;28;20104;-66
2021/08/11 05:29:25;;;;;;;9.48;6.82;;;11.80;84.50;;;;;;5048547;28;20015;-68
2021/08/11 05:31:52;;;;;;;10.60;6.68;;;11.70;84.40;;;;;;5048407;28;20372;-66
2021/08/11 05:34:18;;;;;;;12.27;6.88;;;11.60;84.30;;;;;;5043437;28;20742;-66
2021/08/11 05:36:45;;;;;;;13.13;7.80;;;11.60;84.50;;;;;;5048443;28;20029;-64
2021/08/11 05:39:12;;;;;;;12.65;7.53;;;11.50;84.50;;;;;;5050215;28;20119;-69
2021/08/11 05:41:38;;;;;;;15.50;8.30;;;11.40;84.80;;;;;;5047134;28;20207;-69
2021/08/11 05:44:08;;;;;;;14.13;8.88;;;11.40;84.50;;;;;;5048228;28;20071;-69
2021/08/11 05:46:35;;;;;;;13.07;8.27;;;11.30;84.40;;;;;;5049124;28;20017;-68
2021/08/11 05:49:06;;;;;;;14.10;8.35;;;11.30;84.40;;;;;;5048365;28;20483;-68
2021/08/11 05:51:34;;;;;;;12.45;8.85;;;11.30;84.50;;;;;;5047085;28;20359;-65
2021/08/11 05:54:02;;;;;;;13.27;8.48;;;11.20;84.60;;;;;;5049958;28;20052;-67
2021/08/11 05:56:29;;;;;;;18.27;9.98;;;11.20;84.80;;;;;;5070205;28;20409;-66
2021/08/11 05:58:56;;;;;;;17.08;10.13;;;11.20;84.60;;;;;;5049487;28;20024;-65
2021/08/11 06:01:26;;;;;;;15.25;9.18;;;11.20;84.40;;;;;;5048731;28;20027;-66
2021/08/11 06:03:55;;;;;;;17.75;10.73;;;11.10;84.30;;;;;;5052556;28;20024;-69
2021/08/11 06:06:22;;;;;;;17.00;10.07;;;11.10;84.60;;;;;;5051453;28;20468;-69
2021/08/11 06:08:48;;;;;;;19.13;8.65;;;11.10;84.80;;;;;;5048607;28;20456;-66
2021/08/11 06:11:15;;;;;;;19.45;10.40;;;11.10;84.80;;;;;;5049951;28;20008;-66
2021/08/11 06:13:41;;;;;;;19.70;10.55;;;11.10;85.10;;;;;;5046139;28;20565;-67
2021/08/11 06:16:08;;;;;;;12.77;8.63;;;11.10;84.90;;;;;;5058310;28;20078;-67
2021/08/11 06:18:34;;;;;;;16.77;10.02;;;11.10;85.20;;;;;;5048974;28;20024;-68
2021/08/11 06:21:01;;;;;;;16.77;9.23;;;11.10;85.60;;;;;;5047795;28;20032;-67
2021/08/11 06:23:27;;;;;;;15.95;7.80;;;11.10;85.50;;;;;;5047743;28;20438;-65
2021/08/11 06:25:54;;;;;;;11.13;7.97;;;11.20;85.60;;;;;;5047444;28;20013;-68
2021/08/11 06:28:21;;;;;;;12.10;7.70;;;11.10;85.70;;;;;;5050002;28;20029;-65
2021/08/11 06:30:47;;;;;;;13.65;7.80;;;11.20;86.10;;;;;;5047987;28;21089;-67
2021/08/11 06:33:14;;;;;;;13.88;8.35;;;11.20;86.40;;;;;;5051011;28;20066;-64
2021/08/11 06:36:20;;;;;;;14.30;9.15;;;11.20;86.50;;;;;;5049851;28;20013;-69
2021/08/11 06:39:26;;;;;;;26.23;13.20;;;11.30;86.40;;;;;;5045765;28;20086;-68
2021/08/11 06:42:32;;;;;;;14.90;12.38;;;11.30;86.40;;;;;;5050189;28;20112;-66
2021/08/11 06:45:39;;;;;;;22.63;13.95;;;11.30;86.40;;;;;;5047813;28;20717;-67
2021/08/11 06:48:45;;;;;;;22.42;13.82;;;11.30;86.70;;;;;;5053272;28;20464;-67
2021/08/11 06:51:51;;;;;;;23.00;13.70;;;11.30;86.40;;;;;;5050639;28;20372;-66
2021/08/11 06:54:57;;;;;;;21.98;13.25;;;11.30;86.50;;;;;;5049283;28;20044;-67
2021/08/11 06:58:03;;;;;;;14.50;11.10;;;11.40;86.80;;;;;;5051976;28;20375;-64
2021/08/11 07:01:09;;;;;;;17.97;10.13;;;11.40;87.20;;;;;;5057521;28;20407;-66
2021/08/11 07:04:15;;;;;;;21.40;10.65;;;11.50;87.40;;;;;;5052489;28;20282;-69
2021/08/11 07:07:21;;;;;;;26.53;12.17;;;11.50;87.30;;;;;;5060109;28;20064;-68
2021/08/11 07:10:27;;;;;;;20.80;10.27;;;11.60;87.40;;;;;;5056177;28;20364;-69
2021/08/11 07:13:33;;;;;;;18.85;9.40;;;11.70;87.70;;;;;;5053228;28;20024;-65
2021/08/11 07:16:40;;;;;;;17.70;10.43;;;11.80;87.60;;;;;;5056984;28;20025;-64
2021/08/11 07:19:46;;;;;;;13.27;9.45;;;11.80;87.60;;;;;;5055342;28;20025;-66
2021/08/11 07:22:52;;;;;;;16.60;10.73;;;11.90;87.90;;;;;;5059753;28;20484;-65
2021/08/11 07:25:58;;;;;;;13.82;11.07;;;12.00;87.70;;;;;;5060283;28;20103;-65
2021/08/11 07:29:04;;;;;;;14.50;10.00;;;12.00;87.70;;;;;;5057401;28;20017;-65
2021/08/11 07:32:10;;;;;;;15.30;10.45;;;12.10;88.20;;;;;;5059926;28;20545;-67
2021/08/11 07:35:16;;;;;;;15.55;11.70;;;12.20;88.20;;;;;;5059677;28;20033;-65
2021/08/11 07:38:28;;;;;;;19.95;11.82;;;12.30;88.40;;;;;;5054499;28;20108;-70
2021/08/11 07:41:34;;;;;;;19.13;11.32;;;12.40;88.40;;;;;;5060534;28;20082;-68
2021/08/11 07:44:40;;;;;;;19.77;11.52;;;12.40;88.50;;;;;;5061888;28;20494;-67
2021/08/11 07:47:47;;;;;;;18.83;9.88;;;12.50;88.60;;;;;;5057125;28;20096;-64
2021/08/11 07:50:53;;;;;;;16.92;10.80;;;12.60;88.50;;;;;;5060825;28;20116;-66
2021/08/11 07:53:59;;;;;;;14.95;9.50;;;12.70;88.40;;;;;;5057733;28;20029;-67
2021/08/11 07:57:05;;;;;;;12.88;9.07;;;12.80;88.30;;;;;;5054519;28;20031;-66
2021/08/11 08:00:11;;;;;;;11.52;8.65;;;12.90;88.20;;;;;;5056730;28;20044;-66
2021/08/11 08:03:17;;;;;;;14.85;7.97;;;13.00;88.10;;;;;;5059087;28;20021;-69
2021/08/11 08:06:23;;;;;;;9.75;6.10;;;13.00;87.30;;;;;;5058523;28;20031;-68
2021/08/11 08:09:29;;;;;;;12.90;7.53;;;13.10;87.20;;;;;;5059662;28;20025;-65
2021/08/11 08:12:35;;;;;;;12.23;6.18;;;13.20;87.10;;;;;;5059211;28;20023;-65
2021/08/11 08:15:41;;;;;;;6.07;5.47;;;13.30;87.10;;;;;;5057670;28;20097;-66
2021/08/11 08:18:48;;;;;;;8.10;5.07;;;13.30;87.00;;;;;;5061040;28;20039;-68
2021/08/11 08:21:54;;;;;;;10.15;5.00;;;13.40;86.90;;;;;;5060457;28;20033;-66
2021/08/11 08:25:01;;;;;;;8.18;3.72;;;13.50;86.80;;;;;;5060715;28;20584;-65
2021/08/11 08:28:07;;;;;;;4.20;2.30;;;13.60;86.40;;;;;;5059973;28;21001;-68
2021/08/11 08:31:13;;;;;;;4.47;2.50;;;13.60;85.90;;;;;;5060820;28;20063;-67
2021/08/11 08:34:19;;;;;;;5.57;2.42;;;13.70;85.10;;;;;;5052956;28;20025;-65
2021/08/11 08:37:25;;;;;;;3.97;2.28;;;13.80;84.50;;;;;;5056795;28;20035;-65
2021/08/11 08:40:31;;;;;;;6.03;2.80;;;13.90;84.30;;;;;;5059197;28;20889;-69
2021/08/11 08:43:37;;;;;;;2.88;2.10;;;14.00;83.90;;;;;;5056894;28;20054;-65
2021/08/11 08:46:43;;;;;;;6.93;2.30;;;14.00;83.00;;;;;;5055817;28;20024;-65
2021/08/11 08:49:52;;;;;;;3.92;2.03;;;14.10;83.00;;;;;;5061052;28;20092;-67
2021/08/11 08:52:58;;;;;;;4.55;2.20;;;14.20;82.20;;;;;;5057494;28;20031;-65
2021/08/11 08:56:04;;;;;;;5.75;2.05;;;14.20;81.50;;;;;;5058891;28;20503;-66
2021/08/11 08:59:10;;;;;;;7.40;2.83;;;14.20;80.50;;;;;;5058576;28;20463;-64
2021/08/11 09:02:16;;;;;;;7.13;3.25;;;14.20;80.00;;;;;;5058665;28;20187;-66
2021/08/11 09:05:22;;;;;;;4.05;2.08;;;14.30;80.60;;;;;;5051200;28;20021;-66
2021/08/11 09:08:29;;;;;;;4.88;2.10;;;14.40;81.00;;;;;;5056193;28;20049;-68
2021/08/11 09:11:35;;;;;;;5.35;2.22;;;14.50;80.80;;;;;;5059050;28;20013;-69
2021/08/11 09:14:56;;;;;;;10.07;3.33;;;14.70;81.00;;;;;;5058813;28;20029;-69
2021/08/11 09:18:14;;;;;;;6.13;3.25;;;14.80;80.10;;;;;;5059977;28;20387;-69
2021/08/11 09:21:09;;;;;;;8.07;2.67;;;15.00;79.80;;;;;;5053043;28;20183;-68
2021/08/11 09:24:21;;;;;;;7.45;2.00;;;15.10;78.20;;;;;;5058096;28;20373;-65
2021/08/11 09:27:23;;;;;;;4.00;1.67;;;15.30;79.00;;;;;;5058747;28;20028;-69
2021/08/11 09:30:02;;;;;;;6.82;1.50;;;15.40;76.80;;;;;;5056786;28;20035;-65
2021/08/11 09:33:14;;;;;;;11.80;1.95;;;15.50;75.00;;;;;;5057257;28;20499;-65
2021/08/11 09:36:20;;;;;;;5.38;1.85;;;15.60;74.90;;;;;;5057526;28;20017;-66
2021/08/11 09:39:40;;;;;;;1.65;1.33;;;15.60;73.90;;;;;;5056787;28;20420;-67
2021/08/11 09:42:46;;;;;;;2.78;1.75;;;15.70;73.80;;;;;;5057661;28;20388;-65
2021/08/11 09:45:44;;;;;;;3.97;0.85;;;15.80;74.10;;;;;;5057331;28;20020;-67
2021/08/11 09:48:59;;;;;;;5.28;1.67;;;15.90;73.30;;;;;;5057187;28;20119;-65
2021/08/11 09:51:55;;;;;;;3.22;1.17;;;16.00;73.40;;;;;;5058304;28;20017;-65
2021/08/11 09:55:01;;;;;;;2.15;1.02;;;16.10;72.30;;;;;;5052659;28;20098;-68
2021/08/11 09:58:07;;;;;;;5.05;0.80;;;16.20;72.10;;;;;;5059076;28;20570;-66
2021/08/11 10:01:19;;;;;;;0.60;0.50;;;16.20;71.60;;;;;;5056241;28;20447;-70
2021/08/11 10:04:23;;;;;;;8.77;1.80;;;16.30;71.50;;;;;;5048052;28;20028;-68
2021/08/11 10:07:29;;;;;;;4.22;1.50;;;16.40;70.70;;;;;;5052938;28;20124;-68
2021/08/11 10:10:41;;;;;;;4.53;0.70;;;16.50;70.70;;;;;;5052857;28;20483;-69
2021/08/11 10:13:47;;;;;;;3.92;0.63;;;16.40;70.50;;;;;;5051447;28;20488;-68
2021/08/11 10:16:53;;;;;;;3.03;1.35;;;16.50;71.50;;;;;;5046916;28;20385;-68
2021/08/11 10:20:00;;;;;;;2.35;1.27;;;16.50;70.40;;;;;;5058397;28;20438;-69
2021/08/11 10:23:06;;;;;;;5.38;1.02;;;16.50;69.50;;;;;;5055320;28;20503;-71
2021/08/11 10:26:12;;;;;;;2.05;0.63;;;16.40;69.50;;;;;;5056121;28;20029;-69
2021/08/11 10:29:18;;;;;;;2.33;1.13;;;16.40;69.10;;;;;;5055463;28;20021;-71
2021/08/11 10:32:24;;;;;;;4.93;1.20;;;16.30;69.20;;;;;;5055417;28;20025;-68
2021/08/11 10:35:30;;;;;;;2.25;0.68;;;16.20;70.50;;;;;;5056441;28;20604;-70
2021/08/11 10:38:39;;;;;;;2.15;0.75;;;16.20;70.50;;;;;;5055501;28;20024;-68
2021/08/11 10:41:48;;;;;;;8.35;1.55;;;16.10;70.10;;;;;;5056471;28;20031;-68
2021/08/11 10:44:54;;;;;;;2.97;0.75;;;16.10;71.00;;;;;;5055183;28;20031;-67
2021/08/11 10:48:00;;;;;;;2.78;0.95;;;16.10;71.60;;;;;;5058719;28;20439;-67
2021/08/11 10:51:07;;;;;;;2.83;0.60;;;15.90;72.00;;;;;;5055494;28;20018;-70
2021/08/11 10:54:23;;;;;;;2.08;1.17;;;16.00;72.30;;;;;;5052732;28;20191;-66
2021/08/11 10:57:29;;;;;;;2.08;1.00;;;16.10;71.40;;;;;;5058813;28;20078;-71
2021/08/11 11:00:21;;;;;;;4.05;0.98;;;16.30;71.20;;;;;;5051384;28;20037;-67
2021/08/11 11:03:27;;;;;;;2.65;0.65;;;16.20;70.80;;;;;;5063777;28;20052;-69
2021/08/11 11:06:33;;;;;;;6.60;0.93;;;16.10;71.60;;;;;;5057980;28;20472;-69
2021/08/11 11:09:42;;;;;;;5.82;0.70;;;16.40;71.20;;;;;;5057003;28;20020;-69
2021/08/11 11:12:18;;;;;;;4.88;1.05;;;16.40;71.50;;;;;;5057964;28;20036;-66
2021/08/11 11:15:27;;;;;;;8.18;0.85;;;16.40;71.20;;;;;;5053814;28;20020;-65
2021/08/11 11:18:49;;;;;;;3.40;0.82;;;16.80;71.20;;;;;;5056481;28;20052;-64
2021/08/11 11:21:15;;;;;;;2.40;0.60;;;17.00;68.60;;;;;;5056626;28;20093;-69
2021/08/11 11:24:21;;;;;;;3.58;0.90;;;16.60;69.70;;;;;;5059489;28;20038;-65
2021/08/11 11:27:27;;;;;;;4.93;1.17;;;16.90;69.60;;;;;;5055214;28;20107;-67
2021/08/11 11:30:34;;;;;;;2.42;0.68;;;17.00;69.30;;;;;;5045067;28;20396;-70
2021/08/11 11:33:18;;;;;;;6.03;0.70;;;17.10;69.20;;;;;;5053711;28;20443;-71
2021/08/11 11:36:39;;;;;;;7.80;1.60;;;17.30;68.70;;;;;;5059105;28;20367;-70
2021/08/11 11:39:48;;;;;;;1.50;0.50;;;17.30;67.70;;;;;;5061546;28;20036;-70
2021/08/11 11:42:19;;;;;;;6.38;1.48;;;17.00;67.80;;;;;;5058879;28;20027;-68
2021/08/11 11:45:34;;;;;;;3.58;1.52;;;16.80;69.50;;;;;;5060595;28;20027;-68
2021/08/11 11:48:20;;;;;;;2.85;0.77;;;16.70;70.60;;;;;;5060379;28;20415;-70
2021/08/11 11:51:32;;;;;;;1.77;0.80;;;16.90;69.60;;;;;;5062645;28;20021;-70
2021/08/11 11:54:38;;;;;;;6.07;1.10;;;16.80;67.60;;;;;;5059009;28;20492;-68
2021/08/11 11:57:44;;;;;;;2.35;0.63;;;16.70;67.70;;;;;;5058770;28;20021;-70
2021/08/11 12:00:50;;;;;;;9.95;1.52;;;16.90;67.80;;;;;;5061712;28;20089;-70
2021/08/11 12:03:58;;;;;;;6.78;1.33;;;16.90;67.50;;;;;;5058779;28;20025;-64
2021/08/11 12:07:17;;;;;;;2.03;0.90;;;17.00;68.30;;;;;;5065090;28;20135;-66
2021/08/11 12:10:26;;;;;;;4.00;0.80;;;17.10;68.30;;;;;;5058874;28;20415;-68
2021/08/11 12:13:38;;;;;;;5.13;0.90;;;17.10;68.20;;;;;;5057659;28;20494;-68
2021/08/11 12:16:44;;;;;;;4.80;0.80;;;17.40;67.60;;;;;;5057667;28;20024;-68
2021/08/11 12:19:33;;;;;;;4.22;0.82;;;17.30;66.90;;;;;;5056787;28;20090;-67
2021/08/11 12:22:49;;;;;;;4.63;1.92;;;17.30;66.80;;;;;;5057460;28;20027;-68
2021/08/11 12:26:04;;;;;;;8.07;0.90;;;17.30;65.50;;;;;;5044595;28;20039;-67
2021/08/11 12:29:10;;;;;;;6.35;1.05;;;17.30;64.70;;;;;;5052546;28;20383;-70
2021/08/11 12:32:16;;;;;;;2.47;0.80;;;17.60;63.10;;;;;;5057599;28;20017;-70
2021/08/11 12:35:23;;;;;;;10.82;1.90;;;17.60;64.80;;;;;;5055132;28;20033;-70
2021/08/11 12:38:29;;;;;;;2.13;0.60;;;17.80;64.40;;;;;;5059498;28;20060;-67
2021/08/11 12:41:35;;;;;;;3.15;0.75;;;17.80;64.20;;;;;;5060622;28;20390;-71
2021/08/11 12:44:41;;;;;;;4.15;1.33;;;17.70;63.90;;;;;;5058473;28;20029;-70
2021/08/11 12:47:47;;;;;;;1.17;0.45;;;17.70;64.40;;;;;;5056008;28;20020;-68
2021/08/11 12:50:56;;;;;;;4.35;0.82;;;17.90;63.60;;;;;;5058997;28;20048;-71
2021/08/11 12:54:03;;;;;;;3.90;0.90;;;17.80;62.70;;;;;;5056415;28;20495;-67
2021/08/11 12:57:15;;;;;;;3.22;0.45;;;17.80;62.90;;;;;;5059558;28;20032;-69
2021/08/11 13:00:33;;;;;;;9.07;1.23;;;18.00;62.60;;;;;;5056980;28;20033;-72
2021/08/11 13:03:39;;;;;;;3.10;0.90;;;17.80;62.30;;;;;;5050778;28;20029;-65
2021/08/11 13:06:54;;;;;;;7.55;1.00;;;17.80;63.00;;;;;;5050331;28;20017;-69
2021/08/11 13:10:06;;;;;;;2.85;1.05;;;17.80;62.70;;;;;;5052289;28;20056;-70
2021/08/11 13:13:12;;;;;;;1.42;0.60;;;17.90;62.20;;;;;;5052504;28;20039;-69
2021/08/11 13:16:21;;;;;;;6.28;1.52;;;17.90;62.40;;;;;;5049724;28;20028;-70
2021/08/11 13:19:27;;;;;;;7.78;1.80;;;17.90;62.40;;;;;;5053784;28;20040;-69
2021/08/11 13:22:39;;;;;;;5.53;0.90;;;17.80;62.10;;;;;;5056084;28;20082;-69
2021/08/11 13:25:45;;;;;;;3.22;1.05;;;17.80;62.40;;;;;;5058202;28;20028;-69
2021/08/11 13:28:51;;;;;;;4.53;0.95;;;17.90;63.10;;;;;;5058881;28;20017;-71
2021/08/11 13:31:58;;;;;;;6.47;1.40;;;17.90;63.50;;;;;;5056799;28;20495;-71
2021/08/11 13:35:04;;;;;;;3.70;0.90;;;17.70;63.10;;;;;;5056387;28;20519;-71
2021/08/11 13:38:11;;;;;;;7.38;1.17;;;17.70;62.70;;;;;;5053846;28;20029;-70
2021/08/11 13:41:17;;;;;;;3.38;0.75;;;17.60;63.10;;;;;;5050933;28;20043;-69
2021/08/11 13:44:23;;;;;;;2.40;0.73;;;17.80;62.90;;;;;;5055622;28;20024;-68
2021/08/11 13:47:29;;;;;;;12.60;2.38;;;17.80;63.00;;;;;;5060987;28;20465;-70
2021/08/11 13:50:35;;;;;;;1.73;0.95;;;17.80;64.10;;;;;;5060349;28;20028;-66
2021/08/11 13:53:41;;;;;;;4.13;0.88;;;17.80;63.10;;;;;;5053694;28;20018;-69
2021/08/11 13:56:47;;;;;;;7.53;1.17;;;17.60;64.20;;;;;;5056334;28;20124;-67
2021/08/11 13:59:53;;;;;;;1.88;0.82;;;17.60;63.60;;;;;;5053595;28;20123;-66
2021/08/11 14:02:59;;;;;;;4.63;0.88;;;17.70;63.70;;;;;;5053552;28;20048;-69
2021/08/11 14:06:05;;;;;;;10.30;1.10;;;17.60;64.30;;;;;;5057421;28;20025;-67
2021/08/11 14:08:32;;;;;;;5.05;1.10;;;17.60;64.30;;;;;;5055817;28;20480;-70
2021/08/11 14:10:58;;;;;;;2.35;0.88;;;17.50;64.70;;;;;;5049996;28;20852;-74
2021/08/11 14:13:25;;;;;;;7.13;1.90;;;17.40;65.40;;;;;;5056607;28;20439;-70
2021/08/11 14:15:52;;;;;;;6.60;0.77;;;17.20;65.90;;;;;;5056345;28;20376;-71
2021/08/11 14:18:18;;;;;;;6.78;0.98;;;17.10;66.10;;;;;;5053554;28;20632;-62
2021/08/11 14:20:45;;;;;;;9.35;3.17;;;16.90;66.70;;;;;;5057033;28;20104;-74
2021/08/11 14:23:11;;;;;;;42.25;27.88;;;16.80;67.70;;;;;;5050610;28;20017;-68
2021/08/11 14:25:38;;;;;;;7.97;3.15;;;17.00;68.10;;;;;;5052195;28;20092;-71
2021/08/11 14:28:04;;;;;;;3.50;1.40;;;17.10;67.00;;;;;;5057517;28;20384;-70
2021/08/11 14:30:31;;;;;;;3.25;0.95;;;17.30;66.80;;;;;;5056500;28;20049;-72